sensor_id;sensor_type;location;lat;lon;timestamp;P1;durP1;ratioP1;P2;durP2;ratioP2
14191;SDS011;7177;48.572;7.838;2023-09-19T00:00:30;4.90;;;1.90;;
14191;SDS011;7177;48.572;7.838;2023-09-19T00:02:57;3.13;;;1.57;;
14191;SDS011;7177;48.572;7.838;2023-09-19T00:05:26;2.27;;;1.60;;
14191;SDS011;7177;48.572;7.838;2023-09-19T00:07:54;2.87;;;1.70;;
14191;SDS011;7177;48.572;7.838;2023-09-19T00:10:23;5.47;;;1.60;;
14191;SDS011;7177;48.572;7.838;2023-09-19T00:12:56;4.90;;;1.97;;
14191;SDS011;7177;48.572;7.838;2023-09-19T00:15:23;6.57;;;1.80;;
14191;SDS011;7177;48.572;7.838;2023-09-19T00:17:54;4.33;;;1.40;;
14191;SDS011;7177;48.572;7.838;2023-09-19T00:20:19;2.57;;;1.60;;
14191;SDS011;7177;48.572;7.838;2023-09-19T00:22:48;3.07;;;1.73;;
14191;SDS011;7177;48.572;7.838;2023-09-19T00:25:17;2.77;;;1.57;;
14191;SDS011;7177;48.572;7.838;2023-09-19T00:27:43;7.20;;;1.60;;
14191;SDS011;7177;48.572;7.838;2023-09-19T00:30:10;4.17;;;1.60;;
14191;SDS011;7177;48.572;7.838;2023-09-19T00:32:41;4.53;;;2.00;;
14191;SDS011;7177;48.572;7.838;2023-09-19T00:35:07;10.10;;;2.00;;
14191;SDS011;7177;48.572;7.838;2023-09-19T00:37:34;8.60;;;2.00;;
14191;SDS011;7177;48.572;7.838;2023-09-19T00:40:00;4.47;;;2.07;;
14191;SDS011;7177;48.572;7.838;2023-09-19T00:42:26;3.67;;;1.60;;
14191;SDS011;7177;48.572;7.838;2023-09-19T00:44:53;5.87;;;1.67;;
14191;SDS011;7177;48.572;7.838;2023-09-19T00:47:19;3.30;;;1.90;;
14191;SDS011;7177;48.572;7.838;2023-09-19T00:49:45;4.40;;;2.17;;
14191;SDS011;7177;48.572;7.838;2023-09-19T00:52:15;3.63;;;1.70;;
14191;SDS011;7177;48.572;7.838;2023-09-19T00:54:44;3.50;;;1.90;;
14191;SDS011;7177;48.572;7.838;2023-09-19T00:57:10;2.43;;;1.60;;
14191;SDS011;7177;48.572;7.838;2023-09-19T00:59:36;6.13;;;2.30;;
14191;SDS011;7177;48.572;7.838;2023-09-19T01:02:02;5.30;;;1.67;;
14191;SDS011;7177;48.572;7.838;2023-09-19T01:04:28;4.20;;;1.80;;
14191;SDS011;7177;48.572;7.838;2023-09-19T01:06:54;4.77;;;1.90;;
14191;SDS011;7177;48.572;7.838;2023-09-19T01:09:20;3.80;;;1.87;;
14191;SDS011;7177;48.572;7.838;2023-09-19T01:11:47;7.47;;;2.00;;
14191;SDS011;7177;48.572;7.838;2023-09-19T01:14:32;2.90;;;1.80;;
14191;SDS011;7177;48.572;7.838;2023-09-19T01:17:09;4.70;;;1.77;;
14191;SDS011;7177;48.572;7.838;2023-09-19T01:22:53;3.03;;;1.80;;
14191;SDS011;7177;48.572;7.838;2023-09-19T01:25:49;4.70;;;2.27;;
14191;SDS011;7177;48.572;7.838;2023-09-19T01:31:22;3.33;;;1.70;;
14191;SDS011;7177;48.572;7.838;2023-09-19T01:36:24;4.07;;;2.20;;
14191;SDS011;7177;48.572;7.838;2023-09-19T01:38:51;3.80;;;2.00;;
14191;SDS011;7177;48.572;7.838;2023-09-19T01:44:21;7.10;;;2.30;;
14191;SDS011;7177;48.572;7.838;2023-09-19T01:46:50;3.50;;;1.80;;
14191;SDS011;7177;48.572;7.838;2023-09-19T01:49:37;5.10;;;2.00;;
14191;SDS011;7177;48.572;7.838;2023-09-19T01:52:11;5.87;;;2.23;;
14191;SDS011;7177;48.572;7.838;2023-09-19T01:54:56;5.07;;;2.00;;
14191;SDS011;7177;48.572;7.838;2023-09-19T01:57:33;4.67;;;1.63;;
14191;SDS011;7177;48.572;7.838;2023-09-19T02:00:06;3.57;;;2.00;;
14191;SDS011;7177;48.572;7.838;2023-09-19T02:02:36;6.47;;;2.40;;
14191;SDS011;7177;48.572;7.838;2023-09-19T02:05:04;6.17;;;2.33;;
14191;SDS011;7177;48.572;7.838;2023-09-19T02:07:29;4.77;;;2.00;;
14191;SDS011;7177;48.572;7.838;2023-09-19T02:09:57;4.17;;;2.00;;
14191;SDS011;7177;48.572;7.838;2023-09-19T02:12:25;8.93;;;2.33;;
14191;SDS011;7177;48.572;7.838;2023-09-19T02:14:52;5.80;;;2.37;;
14191;SDS011;7177;48.572;7.838;2023-09-19T02:17:17;6.60;;;2.30;;
14191;SDS011;7177;48.572;7.838;2023-09-19T02:19:44;10.13;;;2.00;;
14191;SDS011;7177;48.572;7.838;2023-09-19T02:22:10;6.60;;;2.17;;
14191;SDS011;7177;48.572;7.838;2023-09-19T02:24:38;4.33;;;2.13;;
14191;SDS011;7177;48.572;7.838;2023-09-19T02:27:04;2.80;;;2.30;;
14191;SDS011;7177;48.572;7.838;2023-09-19T02:29:30;5.33;;;2.07;;
14191;SDS011;7177;48.572;7.838;2023-09-19T02:31:56;5.90;;;2.10;;
14191;SDS011;7177;48.572;7.838;2023-09-19T02:34:22;6.83;;;2.33;;
14191;SDS011;7177;48.572;7.838;2023-09-19T02:36:48;6.73;;;2.07;;
14191;SDS011;7177;48.572;7.838;2023-09-19T02:39:13;5.63;;;2.40;;
14191;SDS011;7177;48.572;7.838;2023-09-19T02:41:39;7.33;;;2.60;;
14191;SDS011;7177;48.572;7.838;2023-09-19T02:44:06;7.87;;;2.00;;
14191;SDS011;7177;48.572;7.838;2023-09-19T02:46:32;7.87;;;2.80;;
14191;SDS011;7177;48.572;7.838;2023-09-19T02:49:01;7.53;;;2.27;;
14191;SDS011;7177;48.572;7.838;2023-09-19T02:51:30;6.77;;;2.00;;
14191;SDS011;7177;48.572;7.838;2023-09-19T02:53:56;9.70;;;2.63;;
14191;SDS011;7177;48.572;7.838;2023-09-19T02:56:21;9.87;;;2.73;;
14191;SDS011;7177;48.572;7.838;2023-09-19T02:58:47;3.27;;;2.30;;
14191;SDS011;7177;48.572;7.838;2023-09-19T03:01:13;6.93;;;2.37;;
14191;SDS011;7177;48.572;7.838;2023-09-19T03:03:39;3.50;;;2.23;;
14191;SDS011;7177;48.572;7.838;2023-09-19T03:06:05;5.10;;;2.50;;
14191;SDS011;7177;48.572;7.838;2023-09-19T03:08:33;6.00;;;2.40;;
14191;SDS011;7177;48.572;7.838;2023-09-19T03:11:01;4.43;;;2.43;;
14191;SDS011;7177;48.572;7.838;2023-09-19T03:13:28;5.17;;;2.43;;
14191;SDS011;7177;48.572;7.838;2023-09-19T03:15:56;4.53;;;2.50;;
14191;SDS011;7177;48.572;7.838;2023-09-19T03:18:23;5.17;;;2.40;;
14191;SDS011;7177;48.572;7.838;2023-09-19T03:20:54;8.97;;;3.00;;
14191;SDS011;7177;48.572;7.838;2023-09-19T03:23:20;5.17;;;2.20;;
14191;SDS011;7177;48.572;7.838;2023-09-19T03:25:45;6.40;;;2.43;;
14191;SDS011;7177;48.572;7.838;2023-09-19T03:28:12;5.43;;;2.60;;
14191;SDS011;7177;48.572;7.838;2023-09-19T03:30:38;8.30;;;2.90;;
14191;SDS011;7177;48.572;7.838;2023-09-19T03:33:04;5.27;;;2.53;;
14191;SDS011;7177;48.572;7.838;2023-09-19T03:35:29;5.63;;;2.53;;
14191;SDS011;7177;48.572;7.838;2023-09-19T03:37:56;9.33;;;3.10;;
14191;SDS011;7177;48.572;7.838;2023-09-19T03:40:21;8.07;;;2.60;;
14191;SDS011;7177;48.572;7.838;2023-09-19T03:42:48;8.20;;;2.50;;
14191;SDS011;7177;48.572;7.838;2023-09-19T03:45:14;6.70;;;2.63;;
14191;SDS011;7177;48.572;7.838;2023-09-19T03:47:41;3.93;;;2.40;;
14191;SDS011;7177;48.572;7.838;2023-09-19T03:50:07;5.97;;;2.87;;
14191;SDS011;7177;48.572;7.838;2023-09-19T03:52:36;5.73;;;2.60;;
14191;SDS011;7177;48.572;7.838;2023-09-19T03:55:01;4.70;;;2.63;;
14191;SDS011;7177;48.572;7.838;2023-09-19T03:57:29;5.93;;;2.53;;
14191;SDS011;7177;48.572;7.838;2023-09-19T03:59:55;9.37;;;2.50;;
14191;SDS011;7177;48.572;7.838;2023-09-19T04:02:21;9.80;;;2.47;;
14191;SDS011;7177;48.572;7.838;2023-09-19T04:04:51;4.90;;;2.83;;
14191;SDS011;7177;48.572;7.838;2023-09-19T04:07:17;5.83;;;2.93;;
14191;SDS011;7177;48.572;7.838;2023-09-19T04:09:47;4.40;;;2.67;;
14191;SDS011;7177;48.572;7.838;2023-09-19T04:12:13;9.67;;;2.90;;
14191;SDS011;7177;48.572;7.838;2023-09-19T04:14:41;7.43;;;2.43;;
14191;SDS011;7177;48.572;7.838;2023-09-19T04:17:07;7.73;;;2.67;;
14191;SDS011;7177;48.572;7.838;2023-09-19T04:19:33;4.97;;;2.60;;
14191;SDS011;7177;48.572;7.838;2023-09-19T04:21:58;9.03;;;2.57;;
14191;SDS011;7177;48.572;7.838;2023-09-19T04:24:24;53.90;;;8.83;;
14191;SDS011;7177;48.572;7.838;2023-09-19T04:26:49;13.60;;;3.40;;
14191;SDS011;7177;48.572;7.838;2023-09-19T04:29:15;9.47;;;3.47;;
14191;SDS011;7177;48.572;7.838;2023-09-19T04:31:40;12.40;;;2.90;;
14191;SDS011;7177;48.572;7.838;2023-09-19T04:34:09;13.10;;;3.23;;
14191;SDS011;7177;48.572;7.838;2023-09-19T04:36:35;6.53;;;2.57;;
14191;SDS011;7177;48.572;7.838;2023-09-19T04:39:01;6.50;;;2.13;;
14191;SDS011;7177;48.572;7.838;2023-09-19T04:41:30;5.57;;;2.43;;
14191;SDS011;7177;48.572;7.838;2023-09-19T04:43:55;4.63;;;2.03;;
14191;SDS011;7177;48.572;7.838;2023-09-19T04:46:21;4.63;;;2.00;;
14191;SDS011;7177;48.572;7.838;2023-09-19T04:48:46;9.90;;;2.43;;
14191;SDS011;7177;48.572;7.838;2023-09-19T04:51:12;4.63;;;2.10;;
14191;SDS011;7177;48.572;7.838;2023-09-19T04:53:38;4.73;;;2.70;;
14191;SDS011;7177;48.572;7.838;2023-09-19T04:56:04;3.70;;;2.20;;
14191;SDS011;7177;48.572;7.838;2023-09-19T04:58:31;6.73;;;2.20;;
14191;SDS011;7177;48.572;7.838;2023-09-19T05:00:57;4.97;;;2.70;;
14191;SDS011;7177;48.572;7.838;2023-09-19T05:03:22;6.30;;;1.93;;
14191;SDS011;7177;48.572;7.838;2023-09-19T05:05:48;4.13;;;2.00;;
14191;SDS011;7177;48.572;7.838;2023-09-19T05:08:14;5.70;;;2.27;;
14191;SDS011;7177;48.572;7.838;2023-09-19T05:10:40;5.70;;;2.00;;
14191;SDS011;7177;48.572;7.838;2023-09-19T05:13:05;7.47;;;2.60;;
14191;SDS011;7177;48.572;7.838;2023-09-19T05:15:32;5.57;;;2.07;;
14191;SDS011;7177;48.572;7.838;2023-09-19T05:17:58;3.73;;;2.27;;
14191;SDS011;7177;48.572;7.838;2023-09-19T05:20:24;6.47;;;2.13;;
14191;SDS011;7177;48.572;7.838;2023-09-19T05:23:04;4.63;;;2.07;;
14191;SDS011;7177;48.572;7.838;2023-09-19T05:25:36;5.27;;;1.77;;
14191;SDS011;7177;48.572;7.838;2023-09-19T05:28:03;5.83;;;1.90;;
14191;SDS011;7177;48.572;7.838;2023-09-19T05:30:31;4.00;;;2.00;;
14191;SDS011;7177;48.572;7.838;2023-09-19T05:32:57;3.73;;;2.10;;
14191;SDS011;7177;48.572;7.838;2023-09-19T05:35:23;6.20;;;2.10;;
14191;SDS011;7177;48.572;7.838;2023-09-19T05:37:52;5.83;;;1.90;;
14191;SDS011;7177;48.572;7.838;2023-09-19T05:40:20;9.70;;;2.33;;
14191;SDS011;7177;48.572;7.838;2023-09-19T05:42:46;4.57;;;2.20;;
14191;SDS011;7177;48.572;7.838;2023-09-19T05:45:12;7.43;;;2.40;;
14191;SDS011;7177;48.572;7.838;2023-09-19T05:47:41;4.50;;;2.03;;
14191;SDS011;7177;48.572;7.838;2023-09-19T05:50:08;5.00;;;2.23;;
14191;SDS011;7177;48.572;7.838;2023-09-19T05:52:37;11.33;;;2.40;;
14191;SDS011;7177;48.572;7.838;2023-09-19T05:55:04;2.77;;;2.30;;
14191;SDS011;7177;48.572;7.838;2023-09-19T05:57:31;5.63;;;2.60;;
14191;SDS011;7177;48.572;7.838;2023-09-19T05:59:57;5.20;;;2.53;;
14191;SDS011;7177;48.572;7.838;2023-09-19T06:02:23;7.80;;;2.87;;
14191;SDS011;7177;48.572;7.838;2023-09-19T06:04:48;6.60;;;3.10;;
14191;SDS011;7177;48.572;7.838;2023-09-19T06:07:14;4.90;;;2.37;;
14191;SDS011;7177;48.572;7.838;2023-09-19T06:09:41;2.63;;;2.03;;
14191;SDS011;7177;48.572;7.838;2023-09-19T06:12:07;5.27;;;2.43;;
14191;SDS011;7177;48.572;7.838;2023-09-19T06:14:32;4.03;;;2.37;;
14191;SDS011;7177;48.572;7.838;2023-09-19T06:16:58;4.03;;;2.20;;
14191;SDS011;7177;48.572;7.838;2023-09-19T06:19:25;4.17;;;2.20;;
14191;SDS011;7177;48.572;7.838;2023-09-19T06:21:52;6.00;;;2.57;;
14191;SDS011;7177;48.572;7.838;2023-09-19T06:24:18;7.60;;;2.37;;
14191;SDS011;7177;48.572;7.838;2023-09-19T06:26:44;6.20;;;2.20;;
14191;SDS011;7177;48.572;7.838;2023-09-19T06:29:10;6.97;;;2.60;;
14191;SDS011;7177;48.572;7.838;2023-09-19T06:31:36;4.83;;;2.37;;
14191;SDS011;7177;48.572;7.838;2023-09-19T06:34:04;3.37;;;2.20;;
14191;SDS011;7177;48.572;7.838;2023-09-19T06:36:29;6.83;;;2.37;;
14191;SDS011;7177;48.572;7.838;2023-09-19T06:38:55;2.90;;;2.13;;
14191;SDS011;7177;48.572;7.838;2023-09-19T06:41:20;3.90;;;2.00;;
14191;SDS011;7177;48.572;7.838;2023-09-19T06:43:49;7.57;;;2.10;;
14191;SDS011;7177;48.572;7.838;2023-09-19T06:46:18;4.17;;;2.23;;
14191;SDS011;7177;48.572;7.838;2023-09-19T06:48:44;5.00;;;2.23;;
14191;SDS011;7177;48.572;7.838;2023-09-19T06:51:11;5.50;;;1.90;;
14191;SDS011;7177;48.572;7.838;2023-09-19T06:53:37;6.57;;;2.20;;
14191;SDS011;7177;48.572;7.838;2023-09-19T06:56:05;4.77;;;2.10;;
14191;SDS011;7177;48.572;7.838;2023-09-19T06:58:31;3.70;;;1.87;;
14191;SDS011;7177;48.572;7.838;2023-09-19T07:00:56;3.17;;;1.73;;
14191;SDS011;7177;48.572;7.838;2023-09-19T07:03:22;3.23;;;1.73;;
14191;SDS011;7177;48.572;7.838;2023-09-19T07:05:51;2.20;;;1.50;;
14191;SDS011;7177;48.572;7.838;2023-09-19T07:08:17;2.53;;;1.73;;
14191;SDS011;7177;48.572;7.838;2023-09-19T07:10:45;2.60;;;1.40;;
14191;SDS011;7177;48.572;7.838;2023-09-19T07:13:13;5.33;;;1.60;;
14191;SDS011;7177;48.572;7.838;2023-09-19T07:15:41;2.90;;;1.70;;
14191;SDS011;7177;48.572;7.838;2023-09-19T07:18:15;2.03;;;1.40;;
14191;SDS011;7177;48.572;7.838;2023-09-19T07:20:42;4.27;;;1.70;;
14191;SDS011;7177;48.572;7.838;2023-09-19T07:23:13;3.70;;;1.60;;
14191;SDS011;7177;48.572;7.838;2023-09-19T07:25:43;3.27;;;1.90;;
14191;SDS011;7177;48.572;7.838;2023-09-19T07:28:09;2.87;;;1.40;;
14191;SDS011;7177;48.572;7.838;2023-09-19T07:30:38;3.37;;;1.70;;
14191;SDS011;7177;48.572;7.838;2023-09-19T07:33:04;3.03;;;1.63;;
14191;SDS011;7177;48.572;7.838;2023-09-19T07:35:30;2.57;;;1.60;;
14191;SDS011;7177;48.572;7.838;2023-09-19T07:37:56;5.70;;;1.70;;
14191;SDS011;7177;48.572;7.838;2023-09-19T07:40:26;3.47;;;1.60;;
14191;SDS011;7177;48.572;7.838;2023-09-19T07:42:53;2.70;;;1.60;;
14191;SDS011;7177;48.572;7.838;2023-09-19T07:45:20;7.27;;;2.17;;
14191;SDS011;7177;48.572;7.838;2023-09-19T07:47:46;1.87;;;1.57;;
14191;SDS011;7177;48.572;7.838;2023-09-19T07:50:16;4.17;;;1.80;;
14191;SDS011;7177;48.572;7.838;2023-09-19T07:52:43;3.43;;;1.60;;
14191;SDS011;7177;48.572;7.838;2023-09-19T07:55:09;4.37;;;1.97;;
14191;SDS011;7177;48.572;7.838;2023-09-19T07:57:41;3.13;;;1.50;;
14191;SDS011;7177;48.572;7.838;2023-09-19T08:00:07;4.97;;;1.90;;
14191;SDS011;7177;48.572;7.838;2023-09-19T08:02:35;2.87;;;1.67;;
14191;SDS011;7177;48.572;7.838;2023-09-19T08:05:03;5.50;;;1.83;;
14191;SDS011;7177;48.572;7.838;2023-09-19T08:07:31;2.77;;;1.47;;
14191;SDS011;7177;48.572;7.838;2023-09-19T08:09:57;8.23;;;1.90;;
14191;SDS011;7177;48.572;7.838;2023-09-19T08:12:23;3.63;;;1.63;;
14191;SDS011;7177;48.572;7.838;2023-09-19T08:14:50;4.83;;;1.80;;
14191;SDS011;7177;48.572;7.838;2023-09-19T08:17:15;2.47;;;1.50;;
14191;SDS011;7177;48.572;7.838;2023-09-19T08:19:41;3.00;;;1.40;;
14191;SDS011;7177;48.572;7.838;2023-09-19T08:22:09;5.23;;;1.57;;
14191;SDS011;7177;48.572;7.838;2023-09-19T08:24:35;2.97;;;1.50;;
14191;SDS011;7177;48.572;7.838;2023-09-19T08:27:01;3.47;;;1.53;;
14191;SDS011;7177;48.572;7.838;2023-09-19T08:29:29;3.30;;;1.70;;
14191;SDS011;7177;48.572;7.838;2023-09-19T08:31:58;14.47;;;2.33;;
14191;SDS011;7177;48.572;7.838;2023-09-19T08:34:24;4.63;;;1.60;;
14191;SDS011;7177;48.572;7.838;2023-09-19T08:36:51;4.93;;;1.50;;
14191;SDS011;7177;48.572;7.838;2023-09-19T08:39:21;3.47;;;1.87;;
14191;SDS011;7177;48.572;7.838;2023-09-19T08:41:47;3.70;;;1.83;;
14191;SDS011;7177;48.572;7.838;2023-09-19T08:44:12;5.93;;;1.93;;
14191;SDS011;7177;48.572;7.838;2023-09-19T08:46:39;2.77;;;1.70;;
14191;SDS011;7177;48.572;7.838;2023-09-19T08:49:28;6.03;;;1.53;;
14191;SDS011;7177;48.572;7.838;2023-09-19T08:52:01;5.60;;;1.50;;
14191;SDS011;7177;48.572;7.838;2023-09-19T08:54:37;2.50;;;1.50;;
14191;SDS011;7177;48.572;7.838;2023-09-19T08:57:06;2.87;;;1.60;;
14191;SDS011;7177;48.572;7.838;2023-09-19T08:59:39;4.53;;;1.57;;
14191;SDS011;7177;48.572;7.838;2023-09-19T09:02:11;4.73;;;1.70;;
14191;SDS011;7177;48.572;7.838;2023-09-19T09:04:39;2.90;;;1.40;;
14191;SDS011;7177;48.572;7.838;2023-09-19T09:07:09;5.80;;;1.40;;
14191;SDS011;7177;48.572;7.838;2023-09-19T09:09:39;2.30;;;1.47;;
14191;SDS011;7177;48.572;7.838;2023-09-19T09:12:12;3.23;;;1.63;;
14191;SDS011;7177;48.572;7.838;2023-09-19T09:14:47;2.93;;;1.50;;
14191;SDS011;7177;48.572;7.838;2023-09-19T09:17:14;2.20;;;1.43;;
14191;SDS011;7177;48.572;7.838;2023-09-19T09:19:41;2.80;;;1.60;;
14191;SDS011;7177;48.572;7.838;2023-09-19T09:22:08;3.97;;;1.63;;
14191;SDS011;7177;48.572;7.838;2023-09-19T09:24:35;2.63;;;1.50;;
14191;SDS011;7177;48.572;7.838;2023-09-19T09:27:04;1.93;;;1.37;;
14191;SDS011;7177;48.572;7.838;2023-09-19T09:29:43;2.00;;;1.50;;
14191;SDS011;7177;48.572;7.838;2023-09-19T09:32:24;2.73;;;1.37;;
14191;SDS011;7177;48.572;7.838;2023-09-19T09:34:58;2.80;;;1.43;;
14191;SDS011;7177;48.572;7.838;2023-09-19T09:37:25;2.77;;;1.70;;
14191;SDS011;7177;48.572;7.838;2023-09-19T09:39:53;1.90;;;1.30;;
14191;SDS011;7177;48.572;7.838;2023-09-19T09:42:41;7.00;;;1.63;;
14191;SDS011;7177;48.572;7.838;2023-09-19T09:45:14;2.37;;;1.30;;
14191;SDS011;7177;48.572;7.838;2023-09-19T09:47:43;2.87;;;1.63;;
14191;SDS011;7177;48.572;7.838;2023-09-19T09:50:28;4.23;;;1.30;;
14191;SDS011;7177;48.572;7.838;2023-09-19T09:53:20;3.90;;;1.60;;
14191;SDS011;7177;48.572;7.838;2023-09-19T09:56:02;4.80;;;1.50;;
14191;SDS011;7177;48.572;7.838;2023-09-19T09:58:33;2.33;;;1.50;;
14191;SDS011;7177;48.572;7.838;2023-09-19T10:01:00;3.47;;;1.50;;
14191;SDS011;7177;48.572;7.838;2023-09-19T10:03:36;1.90;;;1.40;;
14191;SDS011;7177;48.572;7.838;2023-09-19T10:06:09;3.53;;;1.30;;
14191;SDS011;7177;48.572;7.838;2023-09-19T10:09:03;2.53;;;1.30;;
14191;SDS011;7177;48.572;7.838;2023-09-19T10:11:43;3.60;;;2.20;;
14191;SDS011;7177;48.572;7.838;2023-09-19T10:14:15;3.17;;;1.63;;
14191;SDS011;7177;48.572;7.838;2023-09-19T10:16:45;2.53;;;1.40;;
14191;SDS011;7177;48.572;7.838;2023-09-19T10:19:12;4.40;;;1.20;;
14191;SDS011;7177;48.572;7.838;2023-09-19T10:21:55;2.97;;;1.40;;
14191;SDS011;7177;48.572;7.838;2023-09-19T10:24:22;3.93;;;1.30;;
14191;SDS011;7177;48.572;7.838;2023-09-19T10:26:49;4.10;;;1.50;;
14191;SDS011;7177;48.572;7.838;2023-09-19T10:29:16;2.33;;;1.27;;
14191;SDS011;7177;48.572;7.838;2023-09-19T10:31:43;1.80;;;1.20;;
14191;SDS011;7177;48.572;7.838;2023-09-19T10:34:13;3.70;;;1.40;;
14191;SDS011;7177;48.572;7.838;2023-09-19T10:36:40;2.40;;;1.37;;
14191;SDS011;7177;48.572;7.838;2023-09-19T10:39:09;1.97;;;1.17;;
14191;SDS011;7177;48.572;7.838;2023-09-19T10:41:38;2.03;;;1.23;;
14191;SDS011;7177;48.572;7.838;2023-09-19T10:44:05;3.30;;;1.40;;
14191;SDS011;7177;48.572;7.838;2023-09-19T10:46:31;1.97;;;1.20;;
14191;SDS011;7177;48.572;7.838;2023-09-19T10:49:00;3.20;;;1.77;;
14191;SDS011;7177;48.572;7.838;2023-09-19T10:51:29;1.73;;;1.23;;
14191;SDS011;7177;48.572;7.838;2023-09-19T10:54:08;3.97;;;1.30;;
14191;SDS011;7177;48.572;7.838;2023-09-19T10:56:38;2.30;;;1.40;;
14191;SDS011;7177;48.572;7.838;2023-09-19T10:59:10;2.73;;;1.40;;
14191;SDS011;7177;48.572;7.838;2023-09-19T11:01:44;2.73;;;1.30;;
14191;SDS011;7177;48.572;7.838;2023-09-19T11:07:03;5.03;;;1.60;;
14191;SDS011;7177;48.572;7.838;2023-09-19T11:14:54;2.50;;;1.43;;
14191;SDS011;7177;48.572;7.838;2023-09-19T11:30:31;2.77;;;1.37;;
14191;SDS011;7177;48.572;7.838;2023-09-19T11:36:05;2.77;;;1.30;;
14191;SDS011;7177;48.572;7.838;2023-09-19T11:41:36;3.70;;;1.30;;
14191;SDS011;7177;48.572;7.838;2023-09-19T11:46:34;1.87;;;1.30;;
14191;SDS011;7177;48.572;7.838;2023-09-19T11:49:18;1.57;;;1.27;;
14191;SDS011;7177;48.572;7.838;2023-09-19T11:51:48;2.77;;;1.20;;
14191;SDS011;7177;48.572;7.838;2023-09-19T11:54:19;2.77;;;1.27;;
14191;SDS011;7177;48.572;7.838;2023-09-19T11:56:48;2.13;;;1.30;;
14191;SDS011;7177;48.572;7.838;2023-09-19T11:59:21;3.03;;;1.30;;
14191;SDS011;7177;48.572;7.838;2023-09-19T12:01:56;5.70;;;1.37;;
14191;SDS011;7177;48.572;7.838;2023-09-19T12:04:33;2.57;;;1.30;;
14191;SDS011;7177;48.572;7.838;2023-09-19T12:07:12;2.03;;;1.23;;
14191;SDS011;7177;48.572;7.838;2023-09-19T12:09:42;2.00;;;1.23;;
14191;SDS011;7177;48.572;7.838;2023-09-19T12:12:13;1.70;;;1.17;;
14191;SDS011;7177;48.572;7.838;2023-09-19T12:14:48;2.87;;;1.30;;
14191;SDS011;7177;48.572;7.838;2023-09-19T12:17:15;2.03;;;1.00;;
14191;SDS011;7177;48.572;7.838;2023-09-19T12:19:53;6.93;;;1.30;;
14191;SDS011;7177;48.572;7.838;2023-09-19T12:22:20;4.57;;;1.50;;
14191;SDS011;7177;48.572;7.838;2023-09-19T12:24:46;1.87;;;1.10;;
14191;SDS011;7177;48.572;7.838;2023-09-19T12:27:12;2.57;;;1.30;;
14191;SDS011;7177;48.572;7.838;2023-09-19T12:29:42;2.97;;;1.90;;
14191;SDS011;7177;48.572;7.838;2023-09-19T12:32:13;3.97;;;1.17;;
14191;SDS011;7177;48.572;7.838;2023-09-19T12:34:42;3.20;;;1.70;;
14191;SDS011;7177;48.572;7.838;2023-09-19T12:39:44;6.97;;;1.17;;
14191;SDS011;7177;48.572;7.838;2023-09-19T12:42:25;2.93;;;1.30;;
14191;SDS011;7177;48.572;7.838;2023-09-19T12:44:57;2.23;;;1.23;;
14191;SDS011;7177;48.572;7.838;2023-09-19T12:47:25;1.60;;;1.30;;
14191;SDS011;7177;48.572;7.838;2023-09-19T12:50:06;2.03;;;1.43;;
14191;SDS011;7177;48.572;7.838;2023-09-19T12:55:23;2.97;;;1.83;;
14191;SDS011;7177;48.572;7.838;2023-09-19T12:58:03;4.00;;;1.37;;
14191;SDS011;7177;48.572;7.838;2023-09-19T13:00:38;1.93;;;1.30;;
14191;SDS011;7177;48.572;7.838;2023-09-19T13:03:16;1.67;;;1.10;;
14191;SDS011;7177;48.572;7.838;2023-09-19T13:08:27;2.63;;;1.30;;
14191;SDS011;7177;48.572;7.838;2023-09-19T13:13:41;1.90;;;0.93;;
14191;SDS011;7177;48.572;7.838;2023-09-19T13:16:10;1.97;;;1.30;;
14191;SDS011;7177;48.572;7.838;2023-09-19T13:18:43;2.47;;;1.03;;
14191;SDS011;7177;48.572;7.838;2023-09-19T13:21:11;2.50;;;1.20;;
14191;SDS011;7177;48.572;7.838;2023-09-19T13:23:47;3.67;;;1.20;;
14191;SDS011;7177;48.572;7.838;2023-09-19T13:26:14;1.87;;;1.30;;
14191;SDS011;7177;48.572;7.838;2023-09-19T13:28:40;1.67;;;1.10;;
14191;SDS011;7177;48.572;7.838;2023-09-19T13:31:05;1.83;;;1.30;;
14191;SDS011;7177;48.572;7.838;2023-09-19T13:33:31;2.03;;;1.20;;
14191;SDS011;7177;48.572;7.838;2023-09-19T13:35:58;4.47;;;1.33;;
14191;SDS011;7177;48.572;7.838;2023-09-19T13:38:23;1.20;;;1.00;;
14191;SDS011;7177;48.572;7.838;2023-09-19T13:40:49;1.43;;;1.10;;
14191;SDS011;7177;48.572;7.838;2023-09-19T13:43:17;1.73;;;1.20;;
14191;SDS011;7177;48.572;7.838;2023-09-19T13:45:43;1.87;;;1.17;;
14191;SDS011;7177;48.572;7.838;2023-09-19T13:48:08;3.10;;;1.07;;
14191;SDS011;7177;48.572;7.838;2023-09-19T13:50:36;1.67;;;1.00;;
14191;SDS011;7177;48.572;7.838;2023-09-19T13:53:06;1.20;;;0.90;;
14191;SDS011;7177;48.572;7.838;2023-09-19T13:55:36;7.73;;;1.23;;
14191;SDS011;7177;48.572;7.838;2023-09-19T13:58:03;1.57;;;1.20;;
14191;SDS011;7177;48.572;7.838;2023-09-19T14:00:31;1.27;;;1.10;;
14191;SDS011;7177;48.572;7.838;2023-09-19T14:02:59;1.93;;;1.07;;
14191;SDS011;7177;48.572;7.838;2023-09-19T14:05:26;1.80;;;1.10;;
14191;SDS011;7177;48.572;7.838;2023-09-19T14:07:52;1.20;;;1.10;;
14191;SDS011;7177;48.572;7.838;2023-09-19T14:10:17;1.80;;;1.10;;
14191;SDS011;7177;48.572;7.838;2023-09-19T14:12:47;1.70;;;1.20;;
14191;SDS011;7177;48.572;7.838;2023-09-19T14:15:12;2.17;;;1.47;;
14191;SDS011;7177;48.572;7.838;2023-09-19T14:17:38;6.37;;;1.30;;
14191;SDS011;7177;48.572;7.838;2023-09-19T14:20:07;2.07;;;1.53;;
14191;SDS011;7177;48.572;7.838;2023-09-19T14:22:35;3.57;;;2.33;;
14191;SDS011;7177;48.572;7.838;2023-09-19T14:25:01;1.97;;;1.10;;
14191;SDS011;7177;48.572;7.838;2023-09-19T14:27:29;2.03;;;1.07;;
14191;SDS011;7177;48.572;7.838;2023-09-19T14:29:54;1.97;;;1.20;;
14191;SDS011;7177;48.572;7.838;2023-09-19T14:32:21;3.40;;;1.00;;
14191;SDS011;7177;48.572;7.838;2023-09-19T14:34:47;2.83;;;1.10;;
14191;SDS011;7177;48.572;7.838;2023-09-19T14:37:13;1.33;;;1.10;;
14191;SDS011;7177;48.572;7.838;2023-09-19T14:39:39;1.67;;;1.17;;
14191;SDS011;7177;48.572;7.838;2023-09-19T14:42:06;1.30;;;1.10;;
14191;SDS011;7177;48.572;7.838;2023-09-19T14:44:31;1.50;;;1.10;;
14191;SDS011;7177;48.572;7.838;2023-09-19T14:46:57;1.70;;;1.07;;
14191;SDS011;7177;48.572;7.838;2023-09-19T14:49:23;2.17;;;0.87;;
14191;SDS011;7177;48.572;7.838;2023-09-19T14:51:50;2.37;;;1.27;;
14191;SDS011;7177;48.572;7.838;2023-09-19T14:54:17;2.03;;;1.10;;
14191;SDS011;7177;48.572;7.838;2023-09-19T14:56:43;3.63;;;1.10;;
14191;SDS011;7177;48.572;7.838;2023-09-19T14:59:09;1.57;;;1.07;;
14191;SDS011;7177;48.572;7.838;2023-09-19T15:01:35;2.90;;;1.07;;
14191;SDS011;7177;48.572;7.838;2023-09-19T15:04:01;1.23;;;1.00;;
14191;SDS011;7177;48.572;7.838;2023-09-19T15:06:27;0.87;;;0.70;;
14191;SDS011;7177;48.572;7.838;2023-09-19T15:08:53;1.40;;;1.00;;
14191;SDS011;7177;48.572;7.838;2023-09-19T15:11:19;1.63;;;0.90;;
14191;SDS011;7177;48.572;7.838;2023-09-19T15:13:46;1.20;;;1.00;;
14191;SDS011;7177;48.572;7.838;2023-09-19T15:16:13;2.83;;;1.10;;
14191;SDS011;7177;48.572;7.838;2023-09-19T15:18:42;1.13;;;1.00;;
14191;SDS011;7177;48.572;7.838;2023-09-19T15:21:10;1.47;;;1.00;;
14191;SDS011;7177;48.572;7.838;2023-09-19T15:23:37;2.10;;;1.20;;
14191;SDS011;7177;48.572;7.838;2023-09-19T15:26:04;4.23;;;1.10;;
14191;SDS011;7177;48.572;7.838;2023-09-19T15:28:31;1.50;;;1.10;;
14191;SDS011;7177;48.572;7.838;2023-09-19T15:31:04;1.60;;;0.97;;
14191;SDS011;7177;48.572;7.838;2023-09-19T15:33:31;1.33;;;1.00;;
14191;SDS011;7177;48.572;7.838;2023-09-19T15:36:01;6.83;;;1.13;;
14191;SDS011;7177;48.572;7.838;2023-09-19T15:41:25;3.23;;;1.20;;
14191;SDS011;7177;48.572;7.838;2023-09-19T15:43:53;2.67;;;1.07;;
14191;SDS011;7177;48.572;7.838;2023-09-19T15:46:20;1.50;;;1.03;;
14191;SDS011;7177;48.572;7.838;2023-09-19T15:48:46;2.53;;;0.93;;
14191;SDS011;7177;48.572;7.838;2023-09-19T15:51:12;0.87;;;0.80;;
14191;SDS011;7177;48.572;7.838;2023-09-19T15:53:42;1.50;;;1.10;;
14191;SDS011;7177;48.572;7.838;2023-09-19T15:56:13;1.30;;;1.10;;
14191;SDS011;7177;48.572;7.838;2023-09-19T15:58:39;0.93;;;0.83;;
14191;SDS011;7177;48.572;7.838;2023-09-19T16:01:08;1.57;;;1.03;;
14191;SDS011;7177;48.572;7.838;2023-09-19T16:03:37;1.20;;;1.00;;